createdAt,value
2017-04-25T00:00:44.199Z,10.26
2017-04-25T00:01:58.353Z,10.26
2017-04-25T00:03:13.463Z,10.27
2017-04-25T00:04:27.570Z,10.27
2017-04-25T00:05:43.953Z,10.26
2017-04-25T00:06:58.437Z,10.23
2017-04-25T00:08:13.055Z,10.2
2017-04-25T00:09:28.565Z,10.17
2017-04-25T00:10:42.727Z,10.15
2017-04-25T00:11:57.606Z,10.13
2017-04-25T00:13:12.430Z,10.11
2017-04-25T00:14:28.102Z,10.09
2017-04-25T00:15:43.723Z,10.04
2017-04-25T00:16:58.584Z,10.03
2017-04-25T00:18:13.139Z,10.03
2017-04-25T00:19:27.577Z,10.02
2017-04-25T00:20:41.938Z,10.01
2017-04-25T00:21:57.161Z,9.98
2017-04-25T00:23:12.818Z,9.96
2017-04-25T00:24:28.039Z,9.94
2017-04-25T00:25:43.312Z,9.93
2017-04-25T00:26:58.865Z,9.9
2017-04-25T00:28:14.523Z,9.88
2017-04-25T00:29:29.765Z,9.87
2017-04-25T00:30:45.199Z,9.86
2017-04-25T00:32:00.236Z,9.84
2017-04-25T00:33:14.587Z,9.84
2017-04-25T00:34:29.746Z,9.8
2017-04-25T00:35:43.747Z,9.78
2017-04-25T00:36:58.124Z,9.77
2017-04-25T00:38:12.063Z,9.76
2017-04-25T00:39:27.043Z,9.75
2017-04-25T00:40:42.689Z,9.73
2017-04-25T00:41:58.471Z,9.71
2017-04-25T00:43:14.598Z,9.69
2017-04-25T00:44:28.990Z,9.67
2017-04-25T00:45:43.563Z,9.64
2017-04-25T00:46:58.037Z,9.6
2017-04-25T00:48:12.217Z,9.58
2017-04-25T00:49:27.667Z,9.54
2017-04-25T00:50:42.251Z,9.51
2017-04-25T00:51:57.484Z,9.49
2017-04-25T00:53:12.361Z,9.44
2017-04-25T00:54:27.000Z,9.41
2017-04-25T00:55:41.197Z,9.37
2017-04-25T00:56:55.383Z,9.34
2017-04-25T00:58:10.025Z,9.32
2017-04-25T00:59:24.090Z,9.3
2017-04-25T01:00:38.336Z,9.28
2017-04-25T01:01:53.153Z,9.27
2017-04-25T01:03:07.531Z,9.25
2017-04-25T01:04:23.801Z,9.23
2017-04-25T01:05:38.083Z,9.2
2017-04-25T01:06:52.217Z,9.21
2017-04-25T01:08:06.993Z,9.2
2017-04-25T01:09:30.674Z,9.18
2017-04-25T01:10:46.118Z,9.18
2017-04-25T01:13:01.752Z,9.16
2017-04-25T01:14:15.791Z,9.12
2017-04-25T01:15:30.410Z,9.08
2017-04-25T01:16:45.599Z,9.05
2017-04-25T01:17:59.844Z,9.05
2017-04-25T01:19:13.939Z,9.03
2017-04-25T01:20:27.888Z,9.03
2017-04-25T01:21:41.988Z,9.03
2017-04-25T01:22:57.015Z,9.02
2017-04-25T01:24:11.073Z,9.02
2017-04-25T01:25:24.971Z,9
2017-04-25T01:26:39.090Z,8.99
2017-04-25T01:27:53.397Z,8.97
2017-04-25T01:29:08.468Z,8.96
2017-04-25T01:30:22.798Z,8.95
2017-04-25T01:31:37.262Z,8.94
2017-04-25T01:32:51.240Z,8.95
2017-04-25T01:34:06.012Z,8.96
2017-04-25T01:35:20.760Z,8.95
2017-04-25T01:36:34.951Z,8.96
2017-04-25T01:37:49.017Z,8.97
2017-04-25T01:39:03.464Z,8.98
2017-04-25T01:40:18.218Z,8.97
2017-04-25T01:41:32.745Z,8.98
2017-04-25T01:42:47.075Z,8.98
2017-04-25T01:44:01.501Z,8.95
2017-04-25T01:45:15.746Z,8.94
2017-04-25T01:46:29.858Z,8.92
2017-04-25T01:47:44.600Z,8.89
2017-04-25T01:48:59.063Z,8.86
2017-04-25T01:50:13.073Z,8.84
2017-04-25T01:51:27.904Z,8.83
2017-04-25T01:52:42.243Z,8.82
2017-04-25T01:53:56.454Z,8.81
2017-04-25T01:55:10.360Z,8.79
2017-04-25T01:56:24.556Z,8.77
2017-04-25T01:57:38.801Z,8.75
2017-04-25T01:58:53.226Z,8.72
2017-04-25T02:00:07.515Z,8.7
2017-04-25T02:01:22.045Z,8.69
2017-04-25T02:02:37.055Z,8.67
2017-04-25T02:03:51.525Z,8.65
2017-04-25T02:05:05.454Z,8.62
2017-04-25T02:06:20.342Z,8.58
2017-04-25T02:07:34.267Z,8.55
2017-04-25T02:08:48.439Z,8.54
2017-04-25T02:10:02.695Z,8.51
2017-04-25T02:11:16.766Z,8.5
2017-04-25T02:12:31.696Z,8.47
2017-04-25T02:13:46.044Z,8.44
2017-04-25T02:15:00.002Z,8.4
2017-04-25T02:16:14.442Z,8.36
2017-04-25T02:17:28.704Z,8.32
2017-04-25T02:18:43.142Z,8.31
2017-04-25T02:19:58.574Z,8.3
2017-04-25T02:21:12.976Z,8.29
2017-04-25T02:22:27.570Z,8.28
2017-04-25T02:23:42.125Z,8.26
2017-04-25T02:24:56.108Z,8.23
2017-04-25T02:26:10.554Z,8.22
2017-04-25T02:27:24.450Z,8.19
2017-04-25T02:28:38.859Z,8.17
2017-04-25T02:29:53.186Z,8.14
2017-04-25T02:31:07.956Z,8.11
2017-04-25T02:32:22.864Z,8.09
2017-04-25T02:33:38.015Z,8.06
2017-04-25T02:34:52.259Z,8.02
2017-04-25T02:36:06.648Z,7.98
2017-04-25T02:37:21.547Z,7.96
2017-04-25T02:38:36.167Z,7.93
2017-04-25T02:39:50.765Z,7.91
2017-04-25T02:41:05.210Z,7.87
2017-04-25T02:42:19.103Z,7.84
2017-04-25T02:43:33.583Z,7.81
2017-04-25T02:44:47.842Z,7.8
2017-04-25T02:46:01.936Z,7.77
2017-04-25T02:47:16.155Z,7.79
2017-04-25T02:48:30.568Z,7.78
2017-04-25T02:49:44.489Z,7.78
2017-04-25T02:50:59.295Z,7.78
2017-04-25T02:52:13.865Z,7.79
2017-04-25T02:53:28.286Z,7.79
2017-04-25T02:54:42.661Z,7.77
2017-04-25T02:55:56.755Z,7.78
2017-04-25T02:57:11.439Z,7.79
2017-04-25T02:58:25.787Z,7.8
2017-04-25T02:59:40.605Z,7.81
2017-04-25T03:00:55.036Z,7.82
2017-04-25T03:02:09.281Z,7.82
2017-04-25T03:03:24.215Z,7.83
2017-04-25T03:04:38.702Z,7.81
2017-04-25T03:05:53.551Z,7.8
2017-04-25T03:07:08.302Z,7.79
2017-04-25T03:08:23.042Z,7.78
2017-04-25T03:09:39.442Z,7.78
2017-04-25T03:10:53.691Z,7.79
2017-04-25T03:12:07.758Z,7.79
2017-04-25T03:13:39.461Z,7.8
2017-04-25T03:14:53.498Z,7.8
2017-04-25T03:16:07.462Z,7.81
2017-04-25T03:17:22.236Z,7.81
2017-04-25T03:18:36.277Z,7.79
2017-04-25T03:19:50.739Z,7.77
2017-04-25T03:21:04.637Z,7.75
2017-04-25T03:22:18.833Z,7.74
2017-04-25T03:23:32.773Z,7.71
2017-04-25T03:24:47.420Z,7.69
2017-04-25T03:26:01.769Z,7.69
2017-04-25T03:27:16.236Z,7.67
2017-04-25T03:28:30.577Z,7.67
2017-04-25T03:29:45.091Z,7.66
2017-04-25T03:30:59.292Z,7.66
2017-04-25T03:32:13.546Z,7.67
2017-04-25T03:33:28.184Z,7.69
2017-04-25T03:34:42.577Z,7.73
2017-04-25T03:35:56.816Z,7.75
2017-04-25T03:37:11.081Z,7.79
2017-04-25T03:38:24.981Z,7.81
2017-04-25T03:39:39.375Z,7.83
2017-04-25T03:40:53.670Z,7.85
2017-04-25T03:42:07.856Z,7.84
2017-04-25T03:43:22.527Z,7.85
2017-04-25T03:44:36.952Z,7.88
2017-04-25T03:45:51.958Z,7.9
2017-04-25T03:47:06.152Z,7.93
2017-04-25T03:48:20.129Z,7.96
2017-04-25T03:49:34.785Z,7.99
2017-04-25T03:50:48.966Z,8.02
2017-04-25T03:52:03.152Z,8.04
2017-04-25T03:53:18.054Z,8.06
2017-04-25T03:54:32.214Z,8.11
2017-04-25T03:55:46.739Z,8.15
2017-04-25T03:57:01.716Z,8.19
2017-04-25T03:58:15.798Z,8.25
2017-04-25T03:59:29.915Z,8.3
2017-04-25T04:00:44.250Z,8.35
2017-04-25T04:01:59.260Z,8.41
2017-04-25T04:03:13.709Z,8.45
2017-04-25T04:04:27.928Z,8.5
2017-04-25T04:05:43.394Z,8.54
2017-04-25T04:06:57.876Z,8.57
2017-04-25T04:08:12.559Z,8.6
2017-04-25T04:09:28.285Z,8.64
2017-04-25T04:10:42.686Z,8.68
2017-04-25T04:11:58.420Z,8.71
2017-04-25T04:13:12.530Z,8.73
2017-04-25T04:14:26.807Z,8.75
2017-04-25T04:15:41.265Z,8.76
2017-04-25T04:16:56.036Z,8.74
2017-04-25T04:18:10.324Z,8.71
2017-04-25T04:19:24.757Z,8.66
2017-04-25T04:20:38.854Z,8.66
2017-04-25T04:21:53.953Z,8.65
2017-04-25T04:23:08.472Z,8.62
2017-04-25T04:24:23.111Z,8.62
2017-04-25T04:25:37.154Z,8.63
2017-04-25T04:26:51.677Z,8.62
2017-04-25T04:28:06.029Z,8.64
2017-04-25T04:29:20.582Z,8.65
2017-04-25T04:30:34.930Z,8.66
2017-04-25T04:31:49.542Z,8.67
2017-04-25T04:33:03.960Z,8.68
2017-04-25T04:34:18.548Z,8.67
2017-04-25T04:35:32.513Z,8.66
2017-04-25T04:36:47.932Z,8.64
2017-04-25T04:38:02.290Z,8.65
2017-04-25T04:39:17.206Z,8.68
2017-04-25T04:40:32.279Z,8.74
2017-04-25T04:41:46.373Z,8.82
2017-04-25T04:43:00.376Z,8.9
2017-04-25T04:44:15.132Z,8.98
2017-04-25T04:45:31.268Z,9.07
2017-04-25T04:46:47.681Z,9.17
2017-04-25T04:48:14.147Z,9.27
2017-04-25T04:49:31.926Z,9.38
2017-04-25T04:50:46.571Z,9.62
2017-04-25T04:52:01.712Z,9.94
2017-04-25T04:53:16.191Z,9.99
2017-04-25T04:54:31.144Z,10.03
2017-04-25T04:55:45.210Z,10.08
2017-04-25T04:56:59.615Z,10.14
2017-04-25T04:58:15.608Z,10.18
2017-04-25T04:59:30.092Z,10.2
2017-04-25T05:00:44.708Z,10.32
2017-04-25T05:01:58.821Z,10.36
2017-04-25T05:03:13.650Z,10.29
2017-04-25T05:04:28.002Z,10.24
2017-04-25T05:05:42.402Z,10.23
2017-04-25T05:06:56.980Z,10.24
2017-04-25T05:08:11.391Z,10.25
2017-04-25T05:09:26.022Z,10.25
2017-04-25T05:10:41.611Z,10.25
2017-04-25T05:11:55.748Z,10.26
2017-04-25T05:13:09.813Z,10.26
2017-04-25T05:14:24.424Z,10.3
2017-04-25T05:15:39.662Z,10.36
2017-04-25T05:16:55.004Z,10.44
2017-04-25T05:18:09.668Z,10.53
2017-04-25T05:19:35.299Z,10.62
2017-04-25T05:20:50.674Z,10.73
2017-04-25T05:22:05.119Z,10.84
2017-04-25T05:25:04.374Z,11.1
2017-04-25T05:26:18.767Z,11.19
2017-04-25T05:27:33.275Z,11.27
2017-04-25T05:28:47.816Z,11.31
2017-04-25T05:30:21.485Z,11.32
2017-04-25T05:31:36.393Z,11.32
2017-04-25T05:32:50.682Z,11.31
2017-04-25T05:34:05.246Z,11.3
2017-04-25T05:35:20.023Z,11.28
2017-04-25T05:36:35.774Z,11.27
2017-04-25T05:37:50.489Z,11.27
2017-04-25T05:39:05.341Z,11.29
2017-04-25T05:40:19.388Z,11.28
2017-04-25T05:41:33.607Z,11.26
2017-04-25T05:42:48.254Z,11.23
2017-04-25T05:44:02.492Z,11.2
2017-04-25T05:45:16.803Z,11.15
2017-04-25T05:46:31.579Z,11.12
2017-04-25T05:47:45.848Z,11.11
2017-04-25T05:49:01.500Z,11.12
2017-04-25T05:50:15.898Z,11.09
2017-04-25T05:51:30.034Z,11.06
2017-04-25T05:52:45.030Z,11.07
2017-04-25T05:53:59.944Z,11.08
2017-04-25T05:55:14.591Z,11.11
2017-04-25T05:56:29.385Z,11.16
2017-04-25T05:57:44.085Z,11.21
2017-04-25T05:58:58.588Z,11.28
2017-04-25T06:00:12.716Z,11.38
2017-04-25T06:01:27.448Z,11.52
2017-04-25T06:02:42.810Z,11.63
2017-04-25T06:03:58.256Z,11.71
2017-04-25T06:05:12.979Z,11.82
2017-04-25T06:06:27.826Z,11.94
2017-04-25T06:07:42.404Z,12.12
2017-04-25T06:08:58.031Z,12.27
2017-04-25T06:12:40.228Z,12.69
2017-04-25T06:13:54.687Z,12.8
2017-04-25T06:15:09.387Z,12.88
2017-04-25T06:16:24.466Z,12.93
2017-04-25T06:17:39.669Z,13.03
2017-04-25T06:18:54.196Z,13.13
2017-04-25T06:20:09.208Z,13.23
2017-04-25T06:21:24.368Z,13.31
2017-04-25T06:22:38.669Z,13.43
2017-04-25T06:23:53.244Z,13.53
2017-04-25T06:25:07.769Z,13.62
2017-04-25T06:26:22.190Z,13.67
2017-04-25T06:27:36.190Z,13.67
2017-04-25T06:28:50.927Z,13.63
2017-04-25T06:30:05.293Z,13.6
2017-04-25T06:31:19.977Z,13.56
2017-04-25T06:32:33.925Z,13.52
2017-04-25T06:33:48.503Z,13.48
2017-04-25T06:35:03.152Z,13.43
2017-04-25T06:36:19.258Z,13.38
2017-04-25T06:37:33.892Z,13.32
2017-04-25T06:38:48.715Z,13.3
2017-04-25T06:40:03.483Z,13.27
2017-04-25T06:41:18.197Z,13.22
2017-04-25T06:42:34.251Z,13.17
2017-04-25T06:43:49.260Z,13.11
2017-04-25T06:45:11.232Z,13.04
2017-04-25T06:46:26.400Z,12.94
2017-04-25T06:47:40.696Z,12.85
2017-04-25T06:48:55.830Z,12.8
2017-04-25T06:50:10.539Z,12.73
2017-04-25T06:51:25.060Z,12.64
2017-04-25T06:52:39.845Z,12.56
2017-04-25T06:53:54.968Z,12.47
2017-04-25T06:55:09.007Z,12.4
2017-04-25T06:56:23.867Z,12.28
2017-04-25T06:57:38.201Z,12.16
2017-04-25T06:58:53.427Z,12.06
2017-04-25T07:00:07.697Z,11.99
2017-04-25T07:01:21.973Z,11.94
2017-04-25T07:02:36.755Z,11.86
2017-04-25T07:03:51.615Z,11.78
2017-04-25T07:05:12.583Z,11.71
2017-04-25T07:06:27.091Z,11.66
2017-04-25T07:07:42.029Z,11.62
2017-04-25T07:08:57.168Z,11.62
2017-04-25T07:10:11.228Z,11.6
2017-04-25T07:11:27.604Z,11.61
2017-04-25T07:12:41.762Z,11.64
2017-04-25T07:13:56.589Z,11.66
2017-04-25T07:15:11.274Z,11.65
2017-04-25T07:16:25.673Z,11.64
2017-04-25T07:17:40.260Z,11.64
2017-04-25T07:18:54.457Z,11.63
2017-04-25T07:20:08.477Z,11.59
2017-04-25T07:21:23.265Z,11.56
2017-04-25T07:22:37.765Z,11.54
2017-04-25T07:23:52.234Z,11.56
2017-04-25T07:25:06.698Z,11.56
2017-04-25T07:26:21.220Z,11.54
2017-04-25T07:27:35.164Z,11.49
2017-04-25T07:28:49.897Z,11.36
2017-04-25T07:30:03.850Z,11.24
2017-04-25T07:31:18.066Z,11.14
2017-04-25T07:32:32.929Z,11.03
2017-04-25T07:33:47.778Z,10.96
2017-04-25T07:35:02.220Z,10.92
2017-04-25T07:36:17.231Z,10.88
2017-04-25T07:37:31.827Z,10.83
2017-04-25T07:38:46.586Z,10.8
2017-04-25T07:40:01.249Z,10.75
2017-04-25T07:41:16.458Z,10.71
2017-04-25T07:42:30.988Z,10.67
2017-04-25T07:43:45.763Z,10.67
2017-04-25T07:45:01.006Z,10.69
2017-04-25T07:46:15.888Z,10.7
2017-04-25T07:47:30.625Z,10.68
2017-04-25T07:48:45.353Z,10.65
2017-04-25T07:49:59.834Z,10.59
2017-04-25T07:51:14.840Z,10.59
2017-04-25T07:52:29.507Z,10.62
2017-04-25T07:53:44.578Z,10.65
2017-04-25T07:54:59.469Z,10.7
2017-04-25T07:56:13.951Z,10.77
2017-04-25T07:57:28.823Z,10.84
2017-04-25T07:58:43.835Z,10.91
2017-04-25T07:59:58.067Z,10.95
2017-04-25T08:01:12.634Z,10.94
2017-04-25T08:02:27.263Z,10.91
2017-04-25T08:03:42.170Z,10.88
2017-04-25T08:04:56.147Z,10.84
2017-04-25T08:06:10.826Z,10.78
2017-04-25T08:07:25.280Z,10.75
2017-04-25T08:08:40.419Z,10.66
2017-04-25T08:09:54.949Z,10.54
2017-04-25T08:11:09.994Z,10.48
2017-04-25T08:12:24.377Z,10.46
2017-04-25T08:13:39.155Z,10.46
2017-04-25T08:14:53.259Z,10.47
2017-04-25T08:16:08.311Z,10.49
2017-04-25T08:17:23.283Z,10.52
2017-04-25T08:18:38.910Z,10.58
2017-04-25T08:19:52.917Z,10.65
2017-04-25T08:21:09.108Z,10.7
2017-04-25T08:22:23.806Z,10.75
2017-04-25T08:23:38.923Z,10.76
2017-04-25T08:24:53.611Z,10.78
2017-04-25T08:26:08.420Z,10.8
2017-04-25T08:27:22.852Z,10.81
2017-04-25T08:28:38.623Z,10.82
2017-04-25T08:29:52.652Z,10.82
2017-04-25T08:31:07.585Z,10.8
2017-04-25T08:32:22.273Z,10.79
2017-04-25T08:33:37.271Z,10.75
2017-04-25T08:34:51.393Z,10.7
2017-04-25T08:36:06.007Z,10.66
2017-04-25T08:37:20.524Z,10.63
2017-04-25T08:38:35.121Z,10.57
2017-04-25T08:39:50.306Z,10.51
2017-04-25T08:41:05.641Z,10.47
2017-04-25T08:42:22.800Z,10.44
2017-04-25T08:43:37.451Z,10.43
2017-04-25T08:44:52.220Z,10.44
2017-04-25T08:46:06.602Z,10.48
2017-04-25T08:47:21.709Z,10.48
2017-04-25T08:48:36.914Z,10.49
2017-04-25T08:49:51.712Z,10.51
2017-04-25T08:51:06.013Z,10.54
2017-04-25T08:52:20.212Z,10.59
2017-04-25T08:53:34.461Z,10.62
2017-04-25T08:54:49.560Z,10.65
2017-04-25T08:56:04.874Z,10.69
2017-04-25T08:57:20.141Z,10.72
2017-04-25T08:58:35.508Z,10.77
2017-04-25T08:59:51.167Z,10.79
2017-04-25T09:01:05.908Z,10.7
2017-04-25T09:02:20.658Z,10.66
2017-04-25T09:03:35.281Z,10.64
2017-04-25T09:04:49.764Z,10.67
2017-04-25T09:06:04.401Z,10.72
2017-04-25T09:07:18.690Z,10.78
2017-04-25T09:08:33.539Z,10.8
2017-04-25T09:09:48.459Z,10.85
2017-04-25T09:11:04.017Z,10.88
2017-04-25T09:12:18.663Z,10.92
2017-04-25T09:13:33.456Z,10.93
2017-04-25T09:14:48.672Z,10.92
2017-04-25T09:16:03.450Z,10.93
2017-04-25T09:17:17.735Z,10.95
2017-04-25T09:18:32.745Z,10.99
2017-04-25T09:19:47.151Z,11.01
2017-04-25T09:21:01.537Z,11.06
2017-04-25T09:22:16.445Z,11.1
2017-04-25T09:23:30.595Z,11.17
2017-04-25T09:24:45.160Z,11.25
2017-04-25T09:25:59.308Z,11.33
2017-04-25T09:27:14.104Z,11.4
2017-04-25T09:28:29.676Z,11.48
2017-04-25T09:29:44.775Z,11.57
2017-04-25T09:31:00.213Z,11.65
2017-04-25T09:32:15.843Z,11.69
2017-04-25T09:33:30.463Z,11.7
2017-04-25T09:34:44.599Z,11.73
2017-04-25T09:35:59.642Z,11.76
2017-04-25T09:37:14.094Z,11.8
2017-04-25T09:38:29.268Z,11.87
2017-04-25T09:39:43.793Z,11.94
2017-04-25T09:40:58.834Z,12
2017-04-25T09:42:13.028Z,12.06
2017-04-25T09:43:28.492Z,12.1
2017-04-25T09:44:43.810Z,12.14
2017-04-25T09:45:58.294Z,12.18
2017-04-25T09:47:12.735Z,12.22
2017-04-25T09:48:26.986Z,12.25
2017-04-25T09:49:41.857Z,12.25
2017-04-25T09:50:57.093Z,12.27
2017-04-25T09:52:11.402Z,12.32
2017-04-25T09:53:26.180Z,12.38
2017-04-25T09:54:41.047Z,12.44
2017-04-25T09:55:56.220Z,12.49
2017-04-25T09:57:10.418Z,12.55
2017-04-25T09:58:26.219Z,12.6
2017-04-25T09:59:41.742Z,12.63
2017-04-25T10:00:56.433Z,12.65
2017-04-25T10:02:10.861Z,12.68
2017-04-25T10:03:25.869Z,12.72
2017-04-25T10:04:40.458Z,12.75
2017-04-25T10:05:54.621Z,12.77
2017-04-25T10:07:09.082Z,12.77
2017-04-25T10:08:24.318Z,12.74
2017-04-25T10:09:38.963Z,12.72
2017-04-25T10:10:53.715Z,12.7
2017-04-25T10:12:08.607Z,12.73
2017-04-25T10:13:23.323Z,12.78
2017-04-25T10:14:38.203Z,12.82
2017-04-25T10:15:53.591Z,12.88
2017-04-25T10:17:08.799Z,12.94
2017-04-25T10:18:23.878Z,12.98
2017-04-25T10:19:37.868Z,13.03
2017-04-25T10:20:52.728Z,13.08
2017-04-25T10:22:07.981Z,13.15
2017-04-25T10:23:22.663Z,13.23
2017-04-25T10:24:37.280Z,13.32
2017-04-25T10:25:52.087Z,13.39
2017-04-25T10:27:07.205Z,13.46
2017-04-25T10:28:32.849Z,13.57
2017-04-25T10:29:48.292Z,13.69
2017-04-25T10:31:02.472Z,13.8
2017-04-25T10:32:17.165Z,13.9
2017-04-25T10:33:33.026Z,13.98
2017-04-25T10:34:47.672Z,13.97
2017-04-25T10:36:01.803Z,13.95
2017-04-25T10:37:16.197Z,13.94
2017-04-25T10:38:32.218Z,13.87
2017-04-25T10:39:46.558Z,13.78
2017-04-25T10:41:02.048Z,13.76
2017-04-25T10:42:17.535Z,13.8
2017-04-25T10:43:32.625Z,13.89
2017-04-25T10:44:47.439Z,13.98
2017-04-25T10:46:02.958Z,14.07
2017-04-25T10:47:17.689Z,14.18
2017-04-25T10:48:33.105Z,14.15
2017-04-25T10:49:47.106Z,14.01
2017-04-25T10:51:02.535Z,13.85
2017-04-25T10:52:16.700Z,13.7
2017-04-25T10:53:31.346Z,13.6
2017-04-25T10:54:45.747Z,13.59
2017-04-25T10:56:00.250Z,13.61
2017-04-25T10:57:14.381Z,13.64
2017-04-25T10:58:29.344Z,13.67
2017-04-25T10:59:44.999Z,13.75
2017-04-25T11:01:00.421Z,13.8
2017-04-25T11:02:14.939Z,13.82
2017-04-25T11:03:29.305Z,13.8
2017-04-25T11:04:44.435Z,13.8
2017-04-25T11:05:58.676Z,13.79
2017-04-25T11:07:14.105Z,13.71
2017-04-25T11:08:28.749Z,13.65
2017-04-25T11:09:43.769Z,13.64
2017-04-25T11:10:58.321Z,13.65
2017-04-25T11:12:13.006Z,13.71
2017-04-25T11:13:28.713Z,13.79
2017-04-25T11:14:44.115Z,13.89
2017-04-25T11:15:58.481Z,14.02
2017-04-25T11:17:13.085Z,14.13
2017-04-25T11:18:28.950Z,14.22
2017-04-25T11:19:43.449Z,14.32
2017-04-25T11:20:58.665Z,14.4
2017-04-25T11:22:12.729Z,14.48
2017-04-25T11:23:28.007Z,14.57
2017-04-25T11:24:43.042Z,14.64
2017-04-25T11:25:57.204Z,14.71
2017-04-25T11:27:50.381Z,14.69
2017-04-25T11:29:06.364Z,14.72
2017-04-25T11:30:20.540Z,14.76
2017-04-25T11:31:36.646Z,14.86
2017-04-25T11:32:51.602Z,14.95
2017-04-25T11:34:05.823Z,14.95
2017-04-25T11:35:21.618Z,14.92
2017-04-25T11:36:36.646Z,14.87
2017-04-25T11:37:51.474Z,14.81
2017-04-25T11:39:06.059Z,14.77
2017-04-25T11:40:20.098Z,14.73
2017-04-25T11:41:34.910Z,14.7
2017-04-25T11:43:01.701Z,14.72
2017-04-25T11:44:17.077Z,14.72
2017-04-25T11:45:31.556Z,14.69
2017-04-25T11:46:46.537Z,14.64
2017-04-25T11:48:02.065Z,14.59
2017-04-25T11:49:16.727Z,14.59
2017-04-25T11:50:31.886Z,14.56
2017-04-25T11:51:47.420Z,14.51
2017-04-25T11:53:02.224Z,14.47
2017-04-25T11:54:18.267Z,14.42
2017-04-25T11:55:34.071Z,14.33
2017-04-25T11:56:50.596Z,14.26
2017-04-25T11:58:05.108Z,14.28
2017-04-25T11:59:20.777Z,14.29
2017-04-25T12:00:34.954Z,14.28
2017-04-25T12:01:49.821Z,14.24
2017-04-25T12:03:04.303Z,14.24
2017-04-25T12:04:19.652Z,14.27
2017-04-25T12:05:35.238Z,14.33
2017-04-25T12:06:50.363Z,14.4
2017-04-25T12:08:05.067Z,14.43
2017-04-25T12:09:20.456Z,14.45
2017-04-25T12:10:34.871Z,14.48
2017-04-25T12:11:54.240Z,14.54
2017-04-25T12:13:09.294Z,14.6
2017-04-25T12:14:24.051Z,14.67
2017-04-25T12:15:38.798Z,14.73
2017-04-25T12:16:53.986Z,14.8
2017-04-25T12:18:09.366Z,14.85
2017-04-25T12:19:25.002Z,14.9
2017-04-25T12:20:41.573Z,14.95
2017-04-25T12:21:56.941Z,15.01
2017-04-25T12:23:11.523Z,15.05
2017-04-25T12:24:26.271Z,15.09
2017-04-25T12:25:41.022Z,15.06
2017-04-25T12:26:56.280Z,14.98
2017-04-25T12:28:11.477Z,14.95
2017-04-25T12:29:26.474Z,14.92
2017-04-25T12:30:40.460Z,14.87
2017-04-25T12:31:55.785Z,14.77
2017-04-25T12:33:10.639Z,14.7
2017-04-25T12:34:25.532Z,14.65
2017-04-25T12:35:40.773Z,14.66
2017-04-25T12:36:55.223Z,14.67
2017-04-25T12:38:09.926Z,14.67
2017-04-25T12:39:25.818Z,14.69
2017-04-25T12:40:40.547Z,14.7
2017-04-25T12:41:55.429Z,14.7
2017-04-25T12:43:10.267Z,14.72
2017-04-25T12:44:25.114Z,14.75
2017-04-25T12:45:39.735Z,14.8
2017-04-25T12:46:54.699Z,14.85
2017-04-25T12:48:09.296Z,14.9
2017-04-25T12:49:23.615Z,14.92
2017-04-25T12:50:38.579Z,14.9
2017-04-25T12:51:54.313Z,14.87
2017-04-25T12:53:09.020Z,14.81
2017-04-25T12:54:24.986Z,14.73
2017-04-25T12:55:39.735Z,14.64
2017-04-25T12:56:56.269Z,14.58
2017-04-25T12:58:10.750Z,14.55
2017-04-25T12:59:51.356Z,14.52
2017-04-25T13:01:28.045Z,14.56
2017-04-25T13:02:43.908Z,14.58
2017-04-25T13:03:59.582Z,14.61
2017-04-25T13:05:14.582Z,14.65
2017-04-25T13:06:29.887Z,14.69
2017-04-25T13:07:45.680Z,14.76
2017-04-25T13:09:00.106Z,14.87
2017-04-25T13:10:29.273Z,14.97
2017-04-25T13:11:43.600Z,15.08
2017-04-25T13:13:16.497Z,15.16
2017-04-25T13:14:31.004Z,15.24
2017-04-25T13:15:46.959Z,15.28
2017-04-25T13:17:01.972Z,15.3
2017-04-25T13:18:16.334Z,15.3
2017-04-25T13:19:31.207Z,15.36
2017-04-25T13:20:46.051Z,15.44
2017-04-25T13:22:01.922Z,15.52
2017-04-25T13:23:16.920Z,15.57
2017-04-25T13:24:31.771Z,15.65
2017-04-25T13:25:46.970Z,15.72
2017-04-25T13:27:02.325Z,15.78
2017-04-25T13:28:17.435Z,15.83
2017-04-25T13:29:32.655Z,15.87
2017-04-25T13:30:47.495Z,15.91
2017-04-25T13:32:12.260Z,15.95
2017-04-25T13:33:27.170Z,16.02
2017-04-25T13:34:41.856Z,16.07
2017-04-25T13:35:56.869Z,16.1
2017-04-25T13:38:47.309Z,16.09
2017-04-25T13:40:03.233Z,16.03
2017-04-25T13:41:18.252Z,15.97
2017-04-25T13:42:33.752Z,15.94
2017-04-25T13:43:49.050Z,15.91
2017-04-25T13:45:04.226Z,15.9
2017-04-25T13:46:18.802Z,15.89
2017-04-25T13:47:33.982Z,15.9
2017-04-25T13:48:50.542Z,15.95
2017-04-25T13:50:05.975Z,16.02
2017-04-25T13:51:20.593Z,16.05
2017-04-25T13:52:37.238Z,16.08
2017-04-25T13:53:52.376Z,16.07
2017-04-25T13:55:09.943Z,16.06
2017-04-25T13:56:25.484Z,16.1
2017-04-25T13:57:40.311Z,16.12
2017-04-25T13:58:54.842Z,16.1
2017-04-25T14:00:09.765Z,16.05
2017-04-25T14:01:25.482Z,15.96
2017-04-25T14:02:40.065Z,15.83
2017-04-25T14:03:55.109Z,15.7
2017-04-25T14:05:10.512Z,15.56
2017-04-25T14:06:25.893Z,15.4
2017-04-25T14:07:42.927Z,15.26
2017-04-25T14:08:58.678Z,15.19
2017-04-25T14:10:19.325Z,15.15
2017-04-25T14:12:05.305Z,15.11
2017-04-25T14:13:21.136Z,15.08
2017-04-25T14:14:36.296Z,15.02
2017-04-25T14:15:51.284Z,14.99
2017-04-25T14:17:05.794Z,14.97
2017-04-25T14:18:20.727Z,14.94
2017-04-25T14:19:34.716Z,14.92
2017-04-25T14:20:50.020Z,14.89
2017-04-25T14:22:04.581Z,14.84
2017-04-25T14:23:19.224Z,14.84
2017-04-25T14:24:34.020Z,14.86
2017-04-25T14:25:49.012Z,14.85
2017-04-25T14:27:03.043Z,14.8
2017-04-25T14:28:19.330Z,14.76
2017-04-25T14:29:34.546Z,14.78
2017-04-25T14:30:49.271Z,14.8
2017-04-25T14:32:03.779Z,14.8
2017-04-25T14:33:18.374Z,14.79
2017-04-25T14:34:33.410Z,14.77
2017-04-25T14:35:48.193Z,14.77
2017-04-25T14:37:02.608Z,14.78
2017-04-25T14:38:17.156Z,14.8
2017-04-25T14:39:31.926Z,14.8
2017-04-25T14:40:46.587Z,14.81
2017-04-25T14:42:01.489Z,14.81
2017-04-25T14:43:16.544Z,14.8
2017-04-25T14:44:31.059Z,14.81
2017-04-25T14:45:45.637Z,14.8
2017-04-25T14:46:59.815Z,14.76
2017-04-25T14:48:14.495Z,14.74
2017-04-25T14:49:30.199Z,14.72
2017-04-25T14:50:52.086Z,14.74
2017-04-25T14:52:06.866Z,14.77
2017-04-25T14:53:29.224Z,14.84
2017-04-25T14:54:44.977Z,14.86
2017-04-25T14:56:00.049Z,14.9
2017-04-25T14:57:17.693Z,14.87
2017-04-25T14:58:34.714Z,14.81
2017-04-25T14:59:50.279Z,14.82
2017-04-25T15:01:06.722Z,14.78
2017-04-25T15:02:21.652Z,14.7
2017-04-25T15:03:37.935Z,14.56
2017-04-25T15:04:52.898Z,14.43
2017-04-25T15:06:08.197Z,14.35
2017-04-25T15:07:23.163Z,14.28
2017-04-25T15:08:38.348Z,14.28
2017-04-25T15:09:53.753Z,14.3
2017-04-25T15:11:09.635Z,14.37
2017-04-25T15:12:23.868Z,14.46
2017-04-25T15:13:38.242Z,14.58
2017-04-25T15:15:07.421Z,14.7
2017-04-25T15:16:24.060Z,14.85
2017-04-25T15:17:39.284Z,15
2017-04-25T15:18:55.095Z,15.13
2017-04-25T15:20:10.700Z,15.25
2017-04-25T15:21:26.862Z,15.34
2017-04-25T15:22:43.137Z,15.41
2017-04-25T15:23:58.043Z,15.43
2017-04-25T15:25:13.270Z,15.44
2017-04-25T15:26:30.035Z,15.43
2017-04-25T15:27:48.088Z,15.38
2017-04-25T15:29:04.239Z,15.3
2017-04-25T15:30:21.110Z,15.2
2017-04-25T15:31:35.582Z,15.12
2017-04-25T15:32:50.322Z,15.08
2017-04-25T15:34:05.955Z,15.05
2017-04-25T15:35:22.312Z,14.96
2017-04-25T15:36:38.911Z,14.9
2017-04-25T15:37:54.893Z,14.85
2017-04-25T15:39:11.487Z,14.86
2017-04-25T15:40:26.266Z,14.88
2017-04-25T15:41:40.768Z,14.89
2017-04-25T15:42:57.207Z,14.86
2017-04-25T15:44:12.755Z,14.74
2017-04-25T15:45:27.928Z,14.63
2017-04-25T15:46:42.897Z,14.56
2017-04-25T15:47:58.258Z,14.54
2017-04-25T15:49:13.295Z,14.56
2017-04-25T15:50:28.986Z,14.6
2017-04-25T15:51:44.833Z,14.66
2017-04-25T15:53:01.499Z,14.72
2017-04-25T15:54:16.972Z,14.77
2017-04-25T15:55:33.905Z,14.82
2017-04-25T15:56:50.184Z,14.83
2017-04-25T15:58:04.717Z,14.8
2017-04-25T15:59:19.781Z,14.65
2017-04-25T16:00:35.191Z,14.51
2017-04-25T16:02:35.744Z,14.37
2017-04-25T16:03:50.935Z,14.24
2017-04-25T16:05:05.905Z,14.22
2017-04-25T16:06:21.217Z,14.21
2017-04-25T16:07:36.697Z,14.24
2017-04-25T16:08:52.876Z,14.28
2017-04-25T16:10:07.654Z,14.34
2017-04-25T16:11:59.025Z,14.39
2017-04-25T16:13:13.706Z,14.45
2017-04-25T16:14:29.282Z,14.49
2017-04-25T16:15:45.818Z,14.53
2017-04-25T16:17:02.253Z,14.52
2017-04-25T16:18:18.790Z,14.49
2017-04-25T16:19:34.129Z,14.44
2017-04-25T16:20:48.949Z,14.39
2017-04-25T16:22:04.378Z,14.31
2017-04-25T16:23:21.327Z,14.25
2017-04-25T16:24:35.783Z,14.17
2017-04-25T16:25:51.611Z,14.02
2017-04-25T16:27:06.926Z,13.88
2017-04-25T16:28:29.121Z,13.77
2017-04-25T16:29:44.478Z,13.7
2017-04-25T16:31:01.023Z,13.69